Airfield :
LOGIN :

Register | Disclaimer

   EN    FR    IT 

 










Legend :    VFR   Marginal VFR   IFR   Intensive IFR   Very Intensive IFR
Visi :
Ceiling :
>= 8 km
>= 3000ft
5 to 8 km
1000 to 3000 ft
1500m to 5 km
500 to 1000 ft
800 to 1500m
200 to 500 ft
< 800m
< 200 ft
Symbols :   Thunderstorms  Fog  Heavy snow  Heavy precipitations  Wind > 20 kt
SIGMETs :     Misc.  Thunderstorms  Icing  Turbulence  Mountain Waves  Volcanic Ashes







- Airport Elevation : 83 ft
- IATA code : LHR
- Download approach charts


EGLL - London Heathrow

CURRENT METAR :
  • 150950Z AUTO 32008KT 300V360 9999 FEW016 04/01 Q0997

EXPIRED METARs :
  • 150920Z AUTO 33008KT 290V020 9999 FEW013 03/01 Q0996
  • 150850Z AUTO 33005KT 300V030 9999 FEW013 SCT035 03/02 Q0995 TEMPO BKN014
  • 150820Z AUTO 35005KT 310V020 9999 -RA FEW014 BKN029 BKN045 03/02 Q0994 TEMPO BKN014
  • 150750Z AUTO VRB03KT 9999 SCT017 BKN029 03/02 Q0993 TEMPO 7000 -SHRA BKN014
  • 150720Z 35005KT 310V030 9999 -RA SCT017 BKN026 03/02 Q0993 TEMPO 4000 SHRASN BKN012

TAF AMD TAF EGLL
Valid from the 15 at 06:00 until the 16 at 12:00 UTC


150623Z 1506/1612 26008KT 9999 SCT025
BECMG 1506/1509 33012KT
TEMPO 1506/1511 7000 SHRA BKN008
PROB30
TEMPO 1506/1509 4000 SHRASN
PROB40
TEMPO 1511/1518 34015G25KT 8000 -SHRA BKN012
BECMG 1606/1609 27006KT
No reported NOTAMs for that airfield.



MET'MAP, your aeronautical weather chart ! - Copyright ORBIFLY December 2007 - Disclaimer

ORBIFLY MET'MAP TEAM :

Programming & Development : Alexandra Zaïnal
Concept & Development : Baudouin d'Aumeries
Co-Development & Prog : Marc-Olivier Méhu
Technical & hardware support : Manuel Goepfert

Contact : metmap@orbifly.com




SOURCES & CREDITS :

   NOAA